Data for 11/21/2009

Time Sea-Level Adjusted Pressure Absolute Pressure Temperature Relative Humidity Dew Point   
(mb) (inHg) (mb) (inHg) (C) (F) (%) (C) (F)
00:05 1003 29.62 832 24.57 8.8 47.8 23 -11 12.1
00:10 1003 29.62 832 24.57 8.8 47.8 24 -10.6 13
00:15 1003 29.62 832 24.57 8.7 47.7 24 -10.9 12.3
00:20 1003 29.62 832 24.57 9 48.2 23 -11 12.1
00:25 1003 29.62 832 24.57 9 48.2 23 -11.2 11.9
00:30 1003 29.62 832 24.57 9 48.1 25 -10.2 13.6
00:35 1003 29.62 832 24.57 8.8 47.8 24 -10.9 12.4
00:40 1003 29.62 832 24.57 8.6 47.5 28 -9 15.7
00:45 1003 29.62 832 24.57 7.8 46 28 -9.7 14.5
00:50 1003 29.62 832 24.57 8 46.4 27 -9.7 14.6
00:55 1003 29.62 832 24.57 8.1 46.5 28 -9.3 15.3
01:00 1003 29.62 832 24.57 8 46.4 27 -9.9 14.1
01:05 1003 29.62 832 24.57 8 46.5 29 -8.9 15.9
01:10 1003 29.62 832 24.57 7.7 45.9 28 -9.6 14.7
01:15 1003 29.62 832 24.57 7.8 46.1 30 -8.9 16.1
01:20 1003 29.62 832 24.57 7.7 45.8 28 -9.5 14.9
01:25 1003 29.62 832 24.57 8.2 46.8 26 -10.2 13.7
01:30 1003 29.62 832 24.57 8.2 46.7 29 -8.8 16.1
01:35 1003 29.62 832 24.57 7.9 46.2 28 -9.6 14.8
01:40 1003 29.62 832 24.57 8.4 47 26 -10.1 13.8
01:45 1003 29.62 832 24.57 8.4 47.2 31 -7.7 18.2
01:50 1003 29.62 832 24.57 7.8 46.1 30 -8.8 16.2
01:55 1003 29.62 832 24.57 7.9 46.3 32 -7.8 18
02:00 1003 29.62 832 24.57 7.6 45.6 30 -8.7 16.3
02:05 1003 29.62 832 24.57 7.4 45.3 32 -8.1 17.4
02:10 1003 29.62 832 24.57 7 44.6 36 -7.2 19
02:15 1003 29.62 832 24.57 6.7 44.1 37 -6.9 19.6
02:20 1003 29.62 832 24.57 7.1 44.7 33 -8 17.6
02:25 1003 29.62 832 24.57 7.3 45.1 36 -7 19.5
02:30 1003 29.62 832 24.57 7 44.7 33 -8.1 17.3
02:35 1003 29.62 832 24.57 7 44.7 35 -7.2 19
02:40 1003 29.62 832 24.57 7 44.6 38 -6.3 20.7
02:45 1003 29.62 832 24.57 6.9 44.4 35 -7.4 18.6
02:50 1003 29.62 832 24.57 7.1 44.8 37 -6.5 20.3
02:55 1003 29.62 832 24.57 6.8 44.3 36 -7.3 18.9
03:00 1003 29.62 832 24.57 7 44.5 40 -5.8 21.6
03:05 1003 29.62 832 24.57 6.6 43.8 40 -6 21.3
03:10 1003 29.62 832 24.57 6.5 43.7 42 -5.4 22.2
03:15 1003 29.62 832 24.57 6.2 43.1 44 -5.2 22.7
03:20 1003 29.62 832 24.57 6.2 43.1 44 -5.2 22.6
03:25 1003 29.62 832 24.57 6.3 43.4 44 -5.1 22.8
03:30 1003 29.62 832 24.57 6 42.8 46 -4.8 23.4
03:35 1003 29.62 833 24.6 5.7 42.2 48 -4.6 23.7
03:40 1004 29.65 833 24.6 5.5 42 50 -4.1 24.5
03:45 1004 29.65 833 24.6 5.2 41.3 52 -3.9 25
03:50 1004 29.65 833 24.6 5.1 41.1 49 -4.7 23.6
03:55 1005 29.68 834 24.63 5.1 41.3 51 -4.2 24.4
04:00 1005 29.68 834 24.63 5.2 41.3 51 -4.1 24.7
04:05 1005 29.68 834 24.63 4.7 40.4 61 -2.1 28.2
04:10 1005 29.68 835 24.66 3.1 37.6 76 -0.7 30.7
04:15 1006 29.71 835 24.66 1.7 35.1 84 -0.7 30.8
04:20 1006 29.71 835 24.66 1 33.9 88 -0.7 30.7
04:25 1006 29.71 835 24.66 1 33.8 85 -1.2 29.8
04:30 1006 29.71 835 24.66 1.2 34.2 83 -1.4 29.5
04:35 1006 29.71 835 24.66 1.3 34.3 85 -0.9 30.4
04:40 1006 29.71 835 24.66 1.3 34.3 82 -1.5 29.2
04:45 1006 29.71 835 24.66 1.4 34.6 80 -1.7 28.9
04:50 1006 29.71 835 24.66 1.5 34.8 79 -1.7 28.9
04:55 1006 29.71 835 24.66 1.6 34.9 75 -2.3 27.8
05:00 1006 29.71 835 24.66 1.8 35.3 71 -2.9 26.7
05:05 1006 29.71 835 24.66 2 35.6 68 -3.4 25.9
05:10 1006 29.71 835 24.66 2.2 35.9 66 -3.6 25.6
05:15 1006 29.71 835 24.66 2.3 36.1 65 -3.6 25.5
05:20 1006 29.71 835 24.66 2.4 36.3 66 -3.4 25.8
05:25 1006 29.71 835 24.66 2.4 36.3 64 -3.7 25.3
05:30 1006 29.71 835 24.66 2.5 36.5 63 -3.9 25
05:35 1006 29.71 835 24.66 2.6 36.7 60 -4.4 24.1
05:40 1006 29.71 835 24.66 2.8 37.1 59 -4.4 24.1
05:45 1006 29.71 835 24.66 2.8 37 59 -4.4 24
05:50 1006 29.71 835 24.66 2.8 37 60 -4.2 24.4
05:55 1006 29.71 835 24.66 2.7 36.8 61 -4.1 24.6
06:00 1006 29.71 836 24.69 2.6 36.8 60 -4.4 24
06:05 1007 29.74 836 24.69 2.7 36.9 73 -1.6 29.1
06:10 1007 29.74 836 24.69 1.7 35.1 83 -0.8 30.6
06:15 1007 29.74 836 24.69 0.7 33.3 92 -0.5 31.1
06:20 1008 29.77 837 24.72 0.1 32.2 94 -0.7 30.7
06:25 1008 29.77 837 24.72 -0 31.9 95 -0.8 30.6
06:30 1008 29.77 837 24.72 -0.2 31.6 96 -0.8 30.6
06:35 1008 29.77 837 24.72 -0.3 31.5 97 -0.7 30.7
06:40 1008 29.77 837 24.72 -0.5 31.1 97 -0.9 30.4
06:45 1008 29.77 837 24.72 -0.6 30.9 98 -1 30.3
06:50 1008 29.77 837 24.72 -0.7 30.7 98 -1.1 30.1
06:55 1008 29.77 838 24.75 -0.8 30.6 98 -1.1 30.1
07:00 1008 29.77 838 24.75 -0.8 30.6 98 -1 30.2
07:05 1008 29.77 838 24.75 -0.8 30.6 98 -1 30.1
07:10 1008 29.77 838 24.75 -0.8 30.5 98 -1.2 29.9
07:15 1008 29.77 838 24.75 -0.9 30.4 97 -1.3 29.7
07:20 1008 29.77 838 24.75 -0.9 30.4 96 -1.5 29.3
07:25 1008 29.77 838 24.75 -0.9 30.5 93 -1.8 28.8
07:30 1009 29.8 838 24.75 -0.8 30.6 93 -1.7 28.9
07:35 1009 29.8 838 24.75 -0.7 30.8 94 -1.4 29.4
07:40 1009 29.8 838 24.75 -0.6 31 91 -1.9 28.7
07:45 1009 29.8 838 24.75 -0.6 31 90 -2.1 28.3
07:50 1009 29.8 838 24.75 -0.5 31.1 91 -1.8 28.7
07:55 1009 29.8 838 24.75 -0.5 31.1 92 -1.7 28.9
08:00 1009 29.8 838 24.75 -0.5 31 88 -2.2 28
08:05 1009 29.8 838 24.75 -0.5 31.1 88 -2.3 27.8
08:10 1009 29.8 838 24.75 -0.4 31.2 85 -2.7 27.2
08:15 1009 29.8 838 24.75 -0.3 31.4 84 -2.7 27.2
08:20 1009 29.8 838 24.75 -0.2 31.7 86 -2.2 28
08:25 1009 29.8 838 24.75 -0.1 31.8 89 -1.7 28.9
08:30 1009 29.8 838 24.75 -0.3 31.5 90 -1.7 28.9
08:35 1009 29.8 838 24.75 -0.1 31.7 86 -2.2 28
08:40 1009 29.8 838 24.75 0.2 32.4 85 -2 28.3
08:45 1009 29.8 838 24.75 0.4 32.7 83 -2.2 28
08:50 1009 29.8 838 24.75 0.6 33.2 80 -2.5 27.5
08:55 1009 29.8 838 24.75 0.8 33.5 80 -2.2 28
09:00 1009 29.8 839 24.78 0.9 33.7 80 -2.2 28.1
09:05 1009 29.8 839 24.78 0.9 33.7 82 -1.8 28.7
09:10 1009 29.8 839 24.78 0.9 33.6 81 -1.9 28.5
09:15 1010 29.83 839 24.78 0.9 33.7 80 -2.2 28.1
09:20 1010 29.83 839 24.78 1 33.8 78 -2.5 27.5
09:25 1010 29.83 839 24.78 1 33.8 79 -2.3 27.8
09:30 1010 29.83 839 24.78 1.1 34 77 -2.5 27.5
09:35 1010 29.83 839 24.78 1.2 34.2 76 -2.5 27.5
09:40 1010 29.83 839 24.78 1.3 34.4 77 -2.3 27.9
09:45 1010 29.83 839 24.78 1.5 34.6 76 -2.4 27.8
09:50 1010 29.83 839 24.78 1.6 34.9 76 -2.2 28
09:55 1010 29.83 839 24.78 1.7 35.1 74 -2.5 27.6
10:00 1010 29.83 840 24.81 1.8 35.3 74 -2.4 27.7
10:05 1010 29.83 840 24.81 1.9 35.4 74 -2.2 28
10:10 1010 29.83 840 24.81 1.9 35.5 73 -2.4 27.7
10:15 1011 29.85 840 24.81 1.9 35.4 75 -2.2 28.1
10:20 1011 29.85 840 24.81 1.8 35.3 74 -2.3 27.8
10:25 1011 29.85 840 24.81 1.8 35.2 72 -2.7 27.2
10:30 1011 29.85 840 24.81 1.7 35.1 72 -2.8 27
10:35 1011 29.85 840 24.81 1.7 35 70 -3.2 26.2
10:40 1011 29.85 840 24.81 1.6 34.9 69 -3.4 26
10:45 1011 29.85 840 24.81 1.7 35 67 -3.9 25
10:50 1011 29.85 840 24.81 1.7 35.1 67 -3.8 25.2
10:55 1011 29.85 840 24.81 1.8 35.3 66 -3.9 24.9
11:00 1011 29.85 840 24.81 2 35.7 66 -3.7 25.3
11:05 1011 29.85 840 24.81 2.2 36 62 -4.3 24.2
11:10 1011 29.85 840 24.81 2.3 36.2 61 -4.4 24
11:15 1011 29.85 840 24.81 2.7 36.9 61 -4.1 24.6
11:20 1011 29.85 840 24.81 2.9 37.3 62 -3.6 25.5
11:25 1011 29.85 840 24.81 2.7 36.9 62 -3.7 25.3
11:30 1011 29.85 840 24.81 2.6 36.7 62 -3.9 25
11:35 1011 29.85 840 24.81 2.8 37 60 -4.3 24.3
11:40 1011 29.85 840 24.81 3 37.4 59 -4.3 24.3
11:45 1011 29.85 840 24.81 2.8 37.1 58 -4.7 23.5
11:50 1011 29.85 840 24.81 2.6 36.7 55 -5.6 21.9
11:55 1011 29.85 840 24.81 2.5 36.5 54 -6 21.3
12:00 1011 29.85 840 24.81 2.3 36.2 53 -6.3 20.6
12:05 1011 29.85 840 24.81 2.5 36.4 53 -6.2 20.8
12:10 1011 29.85 840 24.81 2.7 36.8 53 -5.9 21.3
12:15 1011 29.85 840 24.81 2.8 37.1 51 -6.4 20.4
12:20 1011 29.85 840 24.81 3.1 37.6 48 -6.9 19.5
12:25 1011 29.85 840 24.81 3.2 37.8 48 -6.8 19.7
12:30 1011 29.85 840 24.81 3.1 37.5 50 -6.5 20.3
12:35 1011 29.85 840 24.81 3 37.4 49 -6.6 20
12:40 1011 29.85 840 24.81 3 37.5 49 -6.7 19.9
12:45 1011 29.85 840 24.81 3.2 37.8 48 -6.7 19.9
12:50 1011 29.85 840 24.81 3.2 37.8 47 -6.9 19.6
12:55 1011 29.85 840 24.81 3.1 37.6 49 -6.6 20.1
13:00 1011 29.85 840 24.81 3 37.3 49 -6.6 20.1
13:05 1011 29.85 840 24.81 2.7 36.8 46 -7.9 17.8
13:10 1011 29.85 840 24.81 2.4 36.3 46 -8 17.6
13:15 1011 29.85 841 24.83 2.3 36.1 47 -7.9 17.7
13:20 1011 29.85 841 24.83 2.4 36.3 47 -7.7 18.1
13:25 1011 29.85 841 24.83 2.3 36.1 48 -7.6 18.2
13:30 1011 29.85 841 24.83 2.2 35.9 48 -7.8 17.9
13:35 1011 29.85 841 24.83 2.1 35.8 48 -7.7 18.2
13:40 1011 29.85 841 24.83 2 35.6 50 -7.3 18.8
13:45 1011 29.85 841 24.83 1.8 35.3 51 -7.2 19
13:50 1011 29.85 841 24.83 1.7 35.1 50 -7.5 18.4
13:55 1012 29.88 841 24.83 1.7 35 55 -6.5 20.3
14:00 1012 29.88 841 24.83 1.2 34.2 65 -4.5 23.9
14:05 1012 29.88 841 24.83 0.2 32.3 67 -5.2 22.6
14:10 1012 29.88 841 24.83 0.1 32.1 63 -6.1 21
14:15 1012 29.88 841 24.83 0.3 32.5 58 -6.9 19.6
14:20 1012 29.88 841 24.83 0.4 32.7 58 -6.9 19.6
14:25 1012 29.88 841 24.83 0.3 32.6 59 -6.8 19.8
14:30 1012 29.88 842 24.86 0.3 32.5 62 -6.1 21
14:35 1012 29.88 842 24.86 -0.2 31.6 66 -5.7 21.7
14:40 1012 29.88 842 24.86 -0.2 31.7 65 -6 21.3
14:45 1012 29.88 842 24.86 0.2 32.3 65 -5.6 21.9
14:50 1013 29.91 842 24.86 -0.2 31.7 71 -4.7 23.5
14:55 1013 29.91 842 24.86 -0.8 30.5 75 -4.7 23.5
15:00 1013 29.91 842 24.86 -1 30.2 74 -5.1 22.9
15:05 1013 29.91 842 24.86 -0.9 30.5 72 -5.2 22.6
15:10 1013 29.91 842 24.86 -1 30.2 72 -5.4 22.3
15:15 1013 29.91 842 24.86 -1.2 29.8 74 -5.2 22.6
15:20 1013 29.91 842 24.86 -1.3 29.7 74 -5.4 22.3
15:25 1013 29.91 842 24.86 -0.9 30.3 71 -5.5 22.1
15:30 1013 29.91 842 24.86 -1.1 30.1 69 -6.1 21
15:35 1013 29.91 842 24.86 -0.9 30.3 67 -6.3 20.7
15:40 1013 29.91 842 24.86 -0.9 30.3 65 -6.6 20
15:45 1013 29.91 842 24.86 -0.9 30.4 63 -7.1 19.2
15:50 1013 29.91 842 24.86 -0.9 30.5 63 -7.1 19.2
15:55 1013 29.91 842 24.86 -0.8 30.5 62 -7.2 19
16:00 1013 29.91 842 24.86 -0.6 31 58 -7.8 17.9
16:05 1013 29.91 842 24.86 -0.4 31.3 57 -7.8 17.9
16:10 1013 29.91 842 24.86 -0.3 31.5 56 -8.1 17.4
16:15 1013 29.91 842 24.86 -0.3 31.4 54 -8.5 16.8
16:20 1013 29.91 842 24.86 -0.6 31 55 -8.5 16.7
16:25 1013 29.91 842 24.86 -0.9 30.4 55 -8.9 16
16:30 1013 29.91 842 24.86 -1 30.3 53 -9.3 15.2
16:35 1013 29.91 842 24.86 -0.7 30.7 51 -9.6 14.6
16:40 1013 29.91 842 24.86 -0.4 31.2 51 -9.3 15.2
16:45 1013 29.91 842 24.86 -0.4 31.3 53 -8.9 16
16:50 1013 29.91 842 24.86 -0.3 31.4 51 -9.3 15.3
16:55 1013 29.91 842 24.86 -0.2 31.7 54 -8.5 16.8
17:00 1013 29.91 842 24.86 -0.5 31 59 -7.7 18.1
17:05 1013 29.91 842 24.86 -1 30.2 58 -8.2 17.2
17:10 1013 29.91 843 24.89 -1 30.2 56 -8.7 16.3
17:15 1013 29.91 843 24.89 -1 30.2 56 -8.7 16.3
17:20 1014 29.94 843 24.89 -1.1 30 56 -8.7 16.3
17:25 1014 29.94 843 24.89 -1.4 29.4 57 -8.8 16.2
17:30 1013 29.91 843 24.89 -1.8 28.8 59 -8.8 16.1
17:35 1013 29.91 843 24.89 -2 28.4 57 -9.4 15.1
17:40 1014 29.94 843 24.89 -1.8 28.8 56 -9.4 15
17:45 1014 29.94 843 24.89 -1.7 29 55 -9.6 14.6
17:50 1014 29.94 843 24.89 -1.6 29.2 55 -9.6 14.8
17:55 1014 29.94 843 24.89 -1.5 29.3 54 -9.6 14.6
18:00 1014 29.94 843 24.89 -1.9 28.6 56 -9.5 14.9
18:05 1014 29.94 843 24.89 -2.2 28 57 -9.5 14.9
18:10 1014 29.94 843 24.89 -2.2 28 57 -9.7 14.5
18:15 1014 29.94 843 24.89 -2.1 28.2 56 -9.7 14.5
18:20 1014 29.94 843 24.89 -1.9 28.5 55 -9.9 14.2
18:25 1014 29.94 843 24.89 -1.8 28.9 54 -9.9 14.2
18:30 1014 29.94 843 24.89 -1.7 29 53 -10 14
18:35 1014 29.94 843 24.89 -1.6 29.1 53 -9.9 14.2
18:40 1014 29.94 843 24.89 -1.6 29.1 51 -10.5 13.2
18:45 1014 29.94 843 24.89 -1.6 29.1 51 -10.4 13.2
18:50 1014 29.94 844 24.92 -1.6 29.1 51 -10.5 13.1
18:55 1014 29.94 844 24.92 -1.7 29 50 -10.7 12.7
19:00 1014 29.94 844 24.92 -1.5 29.2 49 -10.8 12.6
19:05 1014 29.94 844 24.92 -1.5 29.3 47 -11.3 11.6
19:10 1015 29.97 844 24.92 -1.7 29 54 -9.8 14.3
19:15 1015 29.97 844 24.92 -2.2 28.1 55 -10.1 13.8
19:20 1015 29.97 844 24.92 -2.1 28.2 52 -10.7 12.8
19:25 1015 29.97 844 24.92 -2 28.4 53 -10.2 13.6
19:30 1015 29.97 844 24.92 -2 28.4 54 -10.2 13.7
19:35 1015 29.97 844 24.92 -2 28.3 54 -10.2 13.6
19:40 1015 29.97 844 24.92 -1.9 28.5 52 -10.4 13.2
19:45 1015 29.97 844 24.92 -1.9 28.6 54 -10.1 13.9
19:50 1015 29.97 844 24.92 -2.1 28.2 55 -9.9 14.1
19:55 1015 29.97 844 24.92 -2.5 27.6 58 -9.7 14.5
20:00 1015 29.97 844 24.92 -2.6 27.3 57 -10 14
20:05 1015 29.97 844 24.92 -2.7 27.2 56 -10.3 13.4
20:10 1015 29.97 844 24.92 -2.6 27.4 56 -10.2 13.7
20:15 1015 29.97 844 24.92 -2.4 27.7 56 -9.9 14.1
20:20 1015 29.97 844 24.92 -2.3 27.8 55 -10.1 13.9
20:25 1015 29.97 844 24.92 -2.1 28.2 52 -10.7 12.7
20:30 1015 29.97 844 24.92 -2.1 28.3 51 -10.8 12.6
20:35 1015 29.97 844 24.92 -2.2 28.1 51 -11 12.2
20:40 1015 29.97 844 24.92 -2.2 28.1 49 -11.6 11.1
20:45 1015 29.97 844 24.92 -2.1 28.2 48 -11.7 10.9
20:50 1015 29.97 844 24.92 -2.1 28.3 48 -11.8 10.7
20:55 1015 29.97 845 24.95 -2.1 28.2 49 -11.4 11.4
21:00 1015 29.97 845 24.95 -2.2 28 50 -11.4 11.4
21:05 1015 29.97 845 24.95 -2.4 27.6 49 -11.7 10.9
21:10 1015 29.97 845 24.95 -2.7 27.2 49 -11.8 10.7
21:15 1015 29.97 845 24.95 -2.8 27 50 -11.9 10.6
21:20 1015 29.97 845 24.95 -2.9 26.8 51 -11.8 10.8
21:25 1015 29.97 845 24.95 -3.1 26.5 51 -11.8 10.7
21:30 1015 29.97 845 24.95 -3.4 25.8 52 -11.8 10.7
21:35 1015 29.97 845 24.95 -3.9 25 54 -11.8 10.7
21:40 1015 29.97 845 24.95 -4.3 24.3 55 -12 10.3
21:45 1015 29.97 845 24.95 -4.4 24.1 57 -11.8 10.8
21:50 1015 29.97 845 24.95 -4.6 23.7 56 -12.1 10.3
21:55 1015 29.97 845 24.95 -5 23 58 -12 10.4
22:00 1015 29.97 845 24.95 -5 23 57 -12.4 9.7
22:05 1015 29.97 845 24.95 -5.2 22.6 59 -12 10.3
22:10 1016 30 845 24.95 -5.4 22.3 58 -12.3 9.8
22:15 1016 30 845 24.95 -5.2 22.6 56 -12.6 9.3
22:20 1016 30 845 24.95 -4.9 23.3 53 -12.9 8.7
22:25 1016 30 845 24.95 -4.6 23.7 56 -12.2 10
22:30 1016 30 845 24.95 -4.4 24.1 52 -12.9 8.8
22:35 1016 30 845 24.95 -4 24.9 52 -12.4 9.7
22:40 1016 30 845 24.95 -4.2 24.4 52 -12.6 9.4
22:45 1016 30 845 24.95 -4.5 23.9 50 -13.3 8
22:50 1015 29.97 845 24.95 -4.2 24.4 54 -12.2 10.1
22:55 1015 29.97 845 24.95 -5 23 58 -12.1 10.3
23:00 1015 29.97 845 24.95 -5.9 21.4 62 -12 10.4
23:05 1015 29.97 845 24.95 -6.7 19.9 61 -13 8.5
23:10 1015 29.97 844 24.92 -6.3 20.6 59 -13 8.6
23:15 1015 29.97 844 24.92 -6 21.2 59 -12.8 9
23:20 1015 29.97 844 24.92 -6.1 21.1 59 -12.8 8.9
23:25 1015 29.97 844 24.92 -6.2 20.9 61 -12.5 9.6
23:30 1015 29.97 845 24.95 -6.2 20.8 62 -12.4 9.7
23:35 1015 29.97 845 24.95 -6.2 20.8 60 -12.7 9.1
23:40 1015 29.97 844 24.92 -6.3 20.6 61 -12.7 9.2
23:45 1015 29.97 844 24.92 -6.4 20.4 60 -13 8.6
23:50 1015 29.97 844 24.92 -6.2 20.8 60 -12.8 9
23:55 1015 29.97 844 24.92 -6.3 20.6 62 -12.4 9.7
24:00 1015 29.97 844 24.92 -6.9 19.6 64 -12.5 9.4